Time;durP1;ratioP1;P1;durP2;ratioP2;P2;SDS_P1;SDS_P2;PMS_P1;PMS_P2;Temp;Humidity;BMP_temperature;BMP_pressure;BME280_temperature;BME280_humidity;BME280_pressure;Samples;Min_cycle;Max_cycle;Signal;HPM_P1;HPM_P2
2022/09/17 00:00:38;;;;;;;;;;;9.20;99.90;;;;;;5075677;28;19920;-71
2022/09/17 00:03:05;;;;;;;;;;;9.20;99.90;;;;;;5085159;28;19920;-72
2022/09/17 00:05:31;;;;;;;;;;;9.20;99.90;;;;;;5084170;28;20130;-71
2022/09/17 00:07:59;;;;;;;;;;;9.10;99.90;;;;;;5069091;28;19927;-71
2022/09/17 00:10:26;;;;;;;;;;;9.10;99.90;;;;;;5064878;28;19921;-71
2022/09/17 00:12:53;;;;;;;;;;;9.20;99.90;;;;;;5075672;28;19991;-71
2022/09/17 00:15:19;;;;;;;;;;;9.20;99.90;;;;;;5084775;28;19927;-71
2022/09/17 00:17:46;;;;;;;;;;;9.20;99.90;;;;;;5071620;28;20035;-72
2022/09/17 00:20:12;;;;;;;;;;;9.20;99.90;;;;;;5072564;28;19920;-72
2022/09/17 00:22:39;;;;;;;;;;;9.20;99.90;;;;;;5084680;28;19992;-71
2022/09/17 00:25:08;;;;;;;;;;;9.20;99.90;;;;;;5080915;28;19979;-71
2022/09/17 00:27:35;;;;;;;;;;;9.20;99.90;;;;;;5067732;28;20167;-72
2022/09/17 00:30:01;;;;;;;;;;;9.20;99.90;;;;;;5064737;28;19927;-71
2022/09/17 00:32:28;;;;;;;;;;;9.20;99.90;;;;;;5064578;28;19984;-72
2022/09/17 00:34:55;;;;;;;;;;;9.10;99.90;;;;;;5074574;28;19927;-71
2022/09/17 00:37:22;;;;;;;;;;;9.10;99.90;;;;;;5084174;28;19988;-72
2022/09/17 00:39:48;;;;;;;;;;;9.10;99.90;;;;;;5084156;28;19927;-71
2022/09/17 00:42:17;;;;;;;;;;;9.00;99.90;;;;;;5084462;28;19924;-71
2022/09/17 00:44:47;;;;;;;;;;;9.00;99.90;;;;;;5084127;28;19920;-71
2022/09/17 00:47:18;;;;;;;;;;;8.90;99.90;;;;;;5072461;28;19982;-71
2022/09/17 00:49:46;;;;;;;;;;;8.90;99.90;;;;;;5082316;28;19921;-70
2022/09/17 00:52:14;;;;;;;;;;;8.80;99.90;;;;;;5084115;28;20208;-71
2022/09/17 00:54:44;;;;;;;;;;;8.80;99.90;;;;;;5083291;28;19928;-71
2022/09/17 00:57:11;;;;;;;;;;;8.80;99.90;;;;;;5083924;28;19924;-71
2022/09/17 00:59:39;;;;;;;;;;;8.80;99.90;;;;;;5084107;28;20149;-70
2022/09/17 01:02:06;;;;;;;;;;;8.80;99.90;;;;;;5083934;28;19920;-71
2022/09/17 01:04:32;;;;;;;;;;;8.80;99.90;;;;;;5083698;28;20245;-71
2022/09/17 01:07:03;;;;;;;;;;;8.90;99.90;;;;;;5069025;28;19920;-70
2022/09/17 01:09:34;;;;;;;;;;;9.00;99.90;;;;;;5063990;28;20143;-71
2022/09/17 01:12:10;;;;;;;;;;;9.00;99.90;;;;;;5074308;28;19921;-72
2022/09/17 01:14:43;;;;;;;;;;;8.90;99.90;;;;;;5081735;28;19988;-71
2022/09/17 01:17:13;;;;;;;;;;;9.00;99.90;;;;;;5103940;28;19987;-71
2022/09/17 01:19:52;;;;;;;;;;;9.00;99.90;;;;;;5093698;28;19944;-71
2022/09/17 01:22:24;;;;;;;;;;;9.00;99.90;;;;;;5083794;28;19927;-71
2022/09/17 01:25:06;;;;;;;;;;;9.00;99.90;;;;;;5074986;28;19921;-72
2022/09/17 01:27:39;;;;;;;;;;;9.00;99.90;;;;;;5061121;28;19959;-72
2022/09/17 01:30:15;;;;;;;;;;;9.00;99.90;;;;;;5088261;22;19924;-91
2022/09/17 01:32:45;;;;;;;;;;;9.00;99.90;;;;;;5087316;28;19952;-91
2022/09/17 01:35:15;;;;;;;;;;;9.00;99.90;;;;;;5086294;28;20012;-91
2022/09/17 01:37:46;;;;;;;;;;;9.00;99.90;;;;;;5105748;28;19979;-91
2022/09/17 01:40:17;;;;;;;;;;;9.00;99.90;;;;;;5116251;22;19947;-71
2022/09/17 01:42:47;;;;;;;;;;;8.90;99.90;;;;;;5072154;28;20205;-71
2022/09/17 01:45:17;;;;;;;;;;;8.90;99.90;;;;;;5096907;28;20211;-71
2022/09/17 01:47:47;;;;;;;;;;;8.90;99.90;;;;;;5085859;28;19920;-71
2022/09/17 01:50:17;;;;;;;;;;;8.90;99.90;;;;;;5088236;28;20203;-71
2022/09/17 01:52:45;;;;;;;;;;;8.90;99.90;;;;;;5104104;28;19987;-70
2022/09/17 01:55:13;;;;;;;;;;;8.90;99.90;;;;;;5103758;28;19947;-71
2022/09/17 01:57:43;;;;;;;;;;;8.90;99.90;;;;;;5103786;28;19984;-70
2022/09/17 02:00:11;;;;;;;;;;;8.90;99.90;;;;;;5097641;28;19931;-70
2022/09/17 02:02:40;;;;;;;;;;;8.90;99.90;;;;;;5083511;28;20212;-70
2022/09/17 02:05:09;;;;;;;;;;;8.90;99.90;;;;;;5095035;28;19928;-71
2022/09/17 02:07:38;;;;;;;;;;;8.90;99.90;;;;;;5083997;28;20180;-71
2022/09/17 02:10:07;;;;;;;;;;;8.90;99.90;;;;;;5083684;28;19924;-71
2022/09/17 02:12:36;;;;;;;;;;;8.90;99.90;;;;;;5083396;28;19927;-71
2022/09/17 02:15:05;;;;;;;;;;;8.90;99.90;;;;;;5083213;28;19982;-71
2022/09/17 02:17:34;;;;;;;;;;;8.90;99.90;;;;;;5083650;28;19920;-69
2022/09/17 02:20:02;;;;;;;;;;;8.90;99.90;;;;;;5083599;28;19920;-72
2022/09/17 02:22:34;;;;;;;;;;;8.90;99.90;;;;;;5083681;28;19928;-70
2022/09/17 02:25:03;;;;;;;;;;;8.90;99.90;;;;;;5083301;28;19920;-70
2022/09/17 02:27:38;;;;;;;;;;;8.90;99.90;;;;;;5083092;28;20258;-71
2022/09/17 02:30:05;;;;;;;;;;;8.90;99.90;;;;;;5077015;28;19931;-71
2022/09/17 02:32:32;;;;;;;;;;;9.00;99.90;;;;;;5063131;28;20208;-70
2022/09/17 02:34:59;;;;;;;;;;;8.90;99.90;;;;;;5062912;28;19920;-71
2022/09/17 02:37:26;;;;;;;;;;;9.00;99.90;;;;;;5063397;28;19983;-70
2022/09/17 02:39:55;;;;;;;;;;;9.00;99.90;;;;;;5063089;28;19977;-70
2022/09/17 02:42:24;;;;;;;;;;;9.00;99.90;;;;;;5063253;28;19921;-72
2022/09/17 02:44:56;;;;;;;;;;;8.90;99.90;;;;;;5062659;28;19984;-71
2022/09/17 02:47:29;;;;;;;;;;;9.00;99.90;;;;;;5062968;28;19921;-71
2022/09/17 02:50:26;;;;;;;;;;;9.00;99.90;;;;;;5063203;28;20215;-70
2022/09/17 02:52:58;;;;;;;;;;;8.90;99.90;;;;;;5024504;28;19944;-71
2022/09/17 02:55:32;;;;;;;;;;;8.90;99.90;;;;;;5058251;28;20123;-69
2022/09/17 02:58:00;;;;;;;;;;;8.90;99.90;;;;;;5067058;28;19920;-70
2022/09/17 03:00:27;;;;;;;;;;;8.90;99.90;;;;;;5066832;28;19921;-70
2022/09/17 03:02:57;;;;;;;;;;;8.90;99.90;;;;;;5080658;28;19924;-70
2022/09/17 03:05:25;;;;;;;;;;;8.90;99.90;;;;;;5086546;28;19987;-70
2022/09/17 03:07:51;;;;;;;;;;;8.90;99.90;;;;;;5086574;28;20237;-70
2022/09/17 03:10:18;;;;;;;;;;;8.90;99.90;;;;;;5086560;28;19920;-70
2022/09/17 03:12:46;;;;;;;;;;;8.90;99.90;;;;;;5086622;28;19928;-70
2022/09/17 03:15:13;;;;;;;;;;;8.90;99.90;;;;;;5086172;28;20107;-70
2022/09/17 03:17:40;;;;;;;;;;;8.90;99.90;;;;;;5086048;28;20242;-71
2022/09/17 03:20:06;;;;;;;;;;;8.80;99.90;;;;;;5086225;28;19927;-70
2022/09/17 03:22:34;;;;;;;;;;;8.80;99.90;;;;;;5066586;28;19964;-72
2022/09/17 03:25:01;;;;;;;;;;;8.80;99.90;;;;;;5065800;28;19952;-70
2022/09/17 03:27:27;;;;;;;;;;;8.80;99.90;;;;;;5066393;28;19948;-71
2022/09/17 03:29:55;;;;;;;;;;;8.80;99.90;;;;;;5066165;28;19988;-70
2022/09/17 03:32:22;;;;;;;;;;;8.90;99.90;;;;;;5066265;28;19921;-70
2022/09/17 03:34:48;;;;;;;;;;;8.90;99.90;;;;;;5071683;28;20119;-70
2022/09/17 03:37:15;;;;;;;;;;;8.90;99.90;;;;;;5086428;28;19921;-70
2022/09/17 03:39:42;;;;;;;;;;;8.90;99.90;;;;;;5086013;28;19921;-71
2022/09/17 03:42:08;;;;;;;;;;;8.90;99.90;;;;;;5086119;28;19921;-71
2022/09/17 03:44:35;;;;;;;;;;;8.80;99.90;;;;;;5085862;28;19980;-71
2022/09/17 03:47:03;;;;;;;;;;;8.80;99.90;;;;;;5085836;28;19983;-71
2022/09/17 03:49:30;;;;;;;;;;;8.80;99.90;;;;;;5086085;28;19979;-70
2022/09/17 03:51:56;;;;;;;;;;;8.80;99.90;;;;;;5086017;28;19979;-70
2022/09/17 03:54:24;;;;;;;;;;;8.70;99.90;;;;;;5085896;28;19991;-70
2022/09/17 03:56:51;;;;;;;;;;;8.70;99.90;;;;;;5085370;28;19983;-71
2022/09/17 03:59:17;;;;;;;;;;;8.60;99.90;;;;;;5085808;28;19983;-71
2022/09/17 04:01:44;;;;;;;;;;;8.70;99.90;;;;;;5085737;28;19920;-70
2022/09/17 04:04:12;;;;;;;;;;;8.60;99.90;;;;;;5085155;28;20354;-71
2022/09/17 04:06:38;;;;;;;;;;;8.60;99.90;;;;;;5085059;28;19971;-70
2022/09/17 04:09:05;;;;;;;;;;;8.60;99.90;;;;;;5085690;28;19988;-70
2022/09/17 04:11:32;;;;;;;;;;;8.70;99.90;;;;;;5085768;28;19920;-70
2022/09/17 04:13:58;;;;;;;;;;;8.60;99.90;;;;;;5085488;28;19995;-71
2022/09/17 04:16:25;;;;;;;;;;;8.60;99.90;;;;;;5084923;28;20246;-71
2022/09/17 04:18:51;;;;;;;;;;;8.60;99.90;;;;;;5085165;28;19920;-71
2022/09/17 04:21:19;;;;;;;;;;;8.60;99.90;;;;;;5085384;28;19979;-71
2022/09/17 04:23:46;;;;;;;;;;;8.60;99.90;;;;;;5085211;28;20115;-70
2022/09/17 04:26:13;;;;;;;;;;;8.60;99.90;;;;;;5084955;28;19920;-71
2022/09/17 04:28:40;;;;;;;;;;;8.60;99.90;;;;;;5085323;28;19965;-70
2022/09/17 04:31:06;;;;;;;;;;;8.60;99.90;;;;;;5084911;28;19920;-70
2022/09/17 04:33:33;;;;;;;;;;;8.60;99.90;;;;;;5085235;28;20106;-70
2022/09/17 04:36:00;;;;;;;;;;;8.50;99.90;;;;;;5084460;28;20215;-69
2022/09/17 04:38:28;;;;;;;;;;;8.60;99.90;;;;;;5085284;28;19967;-71
2022/09/17 04:40:56;;;;;;;;;;;8.60;99.90;;;;;;5084677;28;19920;-70
2022/09/17 04:43:22;;;;;;;;;;;8.60;99.90;;;;;;5084925;28;20212;-70
2022/09/17 04:45:49;;;;;;;;;;;8.60;99.90;;;;;;5084525;28;19983;-70
2022/09/17 04:48:16;;;;;;;;;;;8.60;99.90;;;;;;5084704;28;19975;-71
2022/09/17 04:50:43;;;;;;;;;;;8.60;99.90;;;;;;5084239;28;20224;-70
2022/09/17 04:53:11;;;;;;;;;;;8.60;99.90;;;;;;5084873;28;19979;-70
2022/09/17 04:55:39;;;;;;;;;;;8.60;99.90;;;;;;5084499;28;19991;-70
2022/09/17 04:58:05;;;;;;;;;;;8.70;99.90;;;;;;5084488;28;19921;-70
2022/09/17 05:00:34;;;;;;;;;;;8.70;99.90;;;;;;5084707;28;19952;-70
2022/09/17 05:03:00;;;;;;;;;;;8.70;99.90;;;;;;5084202;28;19963;-69
2022/09/17 05:05:27;;;;;;;;;;;8.70;99.90;;;;;;5084314;28;19920;-69
2022/09/17 05:07:54;;;;;;;;;;;8.60;99.90;;;;;;5084434;28;20287;-70
2022/09/17 05:10:21;;;;;;;;;;;8.60;99.90;;;;;;5084466;28;19995;-69
2022/09/17 05:12:49;;;;;;;;;;;8.60;99.90;;;;;;5084211;28;19974;-70
2022/09/17 05:15:16;;;;;;;;;;;8.70;99.90;;;;;;5063493;28;19920;-70
2022/09/17 05:17:43;;;;;;;;;;;8.70;99.90;;;;;;5064123;28;19921;-70
2022/09/17 05:20:10;;;;;;;;;;;8.70;99.90;;;;;;5071552;28;20251;-70
2022/09/17 05:22:40;;;;;;;;;;;8.60;99.90;;;;;;5084293;28;19921;-69
2022/09/17 05:25:07;;;;;;;;;;;8.60;99.90;;;;;;5083934;28;19920;-69
2022/09/17 05:27:34;;;;;;;;;;;8.60;99.90;;;;;;5084323;28;19988;-70
2022/09/17 05:30:01;;;;;;;;;;;8.60;99.90;;;;;;5084193;28;19956;-70
2022/09/17 05:32:28;;;;;;;;;;;8.60;99.90;;;;;;5083812;28;20166;-70
2022/09/17 05:34:55;;;;;;;;;;;8.60;99.90;;;;;;5083775;28;19920;-72
2022/09/17 05:37:21;;;;;;;;;;;8.60;99.90;;;;;;5083008;28;19921;-70
2022/09/17 05:39:48;;;;;;;;;;;8.70;99.90;;;;;;5075886;28;20152;-70
2022/09/17 05:42:14;;;;;;;;;;;8.70;99.90;;;;;;5083841;28;19979;-70
2022/09/17 05:44:41;;;;;;;;;;;8.70;99.90;;;;;;5083419;28;19959;-70
2022/09/17 05:47:09;;;;;;;;;;;8.70;99.90;;;;;;5083329;28;19962;-70
2022/09/17 05:49:36;;;;;;;;;;;8.80;99.90;;;;;;5082413;28;19974;-70
2022/09/17 05:52:03;;;;;;;;;;;8.80;99.90;;;;;;5083601;28;19927;-70
2022/09/17 05:54:29;;;;;;;;;;;8.80;99.90;;;;;;5083595;28;19925;-70
2022/09/17 05:56:56;;;;;;;;;;;8.80;99.90;;;;;;5083470;28;19984;-70
2022/09/17 05:59:23;;;;;;;;;;;8.80;99.90;;;;;;5083351;28;20204;-71
2022/09/17 06:01:49;;;;;;;;;;;8.80;99.90;;;;;;5083272;28;19927;-71
2022/09/17 06:04:17;;;;;;;;;;;8.80;99.90;;;;;;5083390;28;20156;-70
2022/09/17 06:06:44;;;;;;;;;;;8.80;99.90;;;;;;5083030;28;19955;-70
2022/09/17 06:09:11;;;;;;;;;;;8.70;99.90;;;;;;5083265;28;19987;-70
2022/09/17 06:11:38;;;;;;;;;;;8.70;99.90;;;;;;5083540;28;19928;-70
2022/09/17 06:14:04;;;;;;;;;;;8.60;99.90;;;;;;5083327;28;19920;-70
2022/09/17 06:16:31;;;;;;;;;;;8.60;99.90;;;;;;5083189;28;19991;-70
2022/09/17 06:18:57;;;;;;;;;;;8.50;99.90;;;;;;5083407;28;20158;-70
2022/09/17 06:21:25;;;;;;;;;;;8.50;99.90;;;;;;5083154;28;19920;-70
2022/09/17 06:23:52;;;;;;;;;;;8.50;99.90;;;;;;5083448;28;19921;-70
2022/09/17 06:26:19;;;;;;;;;;;8.40;99.90;;;;;;5085207;28;20279;-70
2022/09/17 06:28:45;;;;;;;;;;;8.40;99.90;;;;;;5087592;28;20000;-70
2022/09/17 06:31:12;;;;;;;;;;;8.40;99.90;;;;;;5087260;28;19980;-71
2022/09/17 06:33:39;;;;;;;;;;;8.40;99.90;;;;;;5087319;28;20211;-70
2022/09/17 06:36:06;;;;;;;;;;;8.40;99.90;;;;;;5087102;28;19991;-70
2022/09/17 06:38:35;;;;;;;;;;;8.40;99.90;;;;;;5086994;28;19920;-70
2022/09/17 06:41:02;;;;;;;;;;;8.40;99.90;;;;;;5086796;28;19927;-69
2022/09/17 06:43:28;;;;;;;;;;;8.40;99.90;;;;;;5086904;28;19950;-70
2022/09/17 06:45:55;;;;;;;;;;;8.40;99.90;;;;;;5086868;28;19921;-69
2022/09/17 06:48:23;;;;;;;;;;;8.40;99.90;;;;;;5086449;28;19920;-70
2022/09/17 06:50:50;;;;;;;;;;;8.30;99.90;;;;;;5085942;28;19928;-71
2022/09/17 06:53:18;;;;;;;;;;;8.30;99.90;;;;;;5086748;28;19927;-70
2022/09/17 06:55:46;;;;;;;;;;;8.30;99.90;;;;;;5085972;28;19921;-70
2022/09/17 06:58:13;;;;;;;;;;;8.30;99.90;;;;;;5106138;28;19927;-70
2022/09/17 07:00:40;;;;;;;;;;;8.30;99.90;;;;;;5107045;28;20164;-70
2022/09/17 07:03:06;;;;;;;;;;;8.30;99.90;;;;;;5091019;28;19951;-70
2022/09/17 07:05:33;;;;;;;;;;;8.30;99.90;;;;;;5086357;28;19992;-70
2022/09/17 07:08:01;;;;;;;;;;;8.30;99.90;;;;;;5086419;28;20226;-69
2022/09/17 07:10:27;;;;;;;;;;;8.40;99.90;;;;;;5086693;28;19927;-70
2022/09/17 07:12:55;;;;;;;;;;;8.40;99.90;;;;;;5086445;28;19934;-70
2022/09/17 07:15:22;;;;;;;;;;;8.50;99.90;;;;;;5086285;28;20115;-69
2022/09/17 07:17:49;;;;;;;;;;;8.50;99.90;;;;;;5087000;28;19920;-69
2022/09/17 07:20:16;;;;;;;;;;;8.50;99.90;;;;;;5086375;28;19925;-69
2022/09/17 07:22:42;;;;;;;;;;;8.50;99.90;;;;;;5086776;28;19926;-70
2022/09/17 07:25:09;;;;;;;;;;;8.50;99.90;;;;;;5086362;28;20143;-69
2022/09/17 07:27:36;;;;;;;;;;;8.50;99.90;;;;;;5086214;28;19991;-70
2022/09/17 07:30:04;;;;;;;;;;;8.50;99.90;;;;;;5086385;28;19992;-70
2022/09/17 07:32:31;;;;;;;;;;;8.60;99.90;;;;;;5086205;28;19962;-70
2022/09/17 07:34:57;;;;;;;;;;;8.60;99.90;;;;;;5086151;28;19995;-71
2022/09/17 07:37:24;;;;;;;;;;;8.60;99.90;;;;;;5085186;28;20226;-69
2022/09/17 07:42:18;;;;;;;;;;;8.60;99.90;;;;;;5080550;28;19959;-71
2022/09/17 07:44:45;;;;;;;;;;;8.60;99.90;;;;;;5084295;28;19921;-71
2022/09/17 07:47:13;;;;;;;;;;;8.60;99.90;;;;;;5076037;28;19927;-70
2022/09/17 07:49:40;;;;;;;;;;;8.70;99.90;;;;;;5065441;28;19955;-70
2022/09/17 07:52:07;;;;;;;;;;;8.70;99.90;;;;;;5083202;28;19987;-70
2022/09/17 07:54:33;;;;;;;;;;;8.70;99.90;;;;;;5065357;28;19984;-69
2022/09/17 07:57:00;;;;;;;;;;;8.70;99.90;;;;;;5064639;28;19996;-68
2022/09/17 07:59:26;;;;;;;;;;;8.80;99.90;;;;;;5076856;28;19921;-68
2022/09/17 08:01:53;;;;;;;;;;;8.80;99.90;;;;;;5084768;28;19987;-70
2022/09/17 08:04:21;;;;;;;;;;;8.80;99.90;;;;;;5085275;28;19921;-70
2022/09/17 08:06:48;;;;;;;;;;;8.80;99.90;;;;;;5084498;28;19927;-70
2022/09/17 08:09:15;;;;;;;;;;;8.80;99.90;;;;;;5084850;28;19921;-71
2022/09/17 08:11:42;;;;;;;;;;;8.90;99.90;;;;;;5085042;28;19921;-71
2022/09/17 08:14:10;;;;;;;;;;;9.00;99.90;;;;;;5084609;28;19952;-71
2022/09/17 08:16:36;;;;;;;;;;;9.00;99.90;;;;;;5084562;28;20208;-71
2022/09/17 08:19:03;;;;;;;;;;;9.00;99.90;;;;;;5084303;28;19991;-70
2022/09/17 08:21:31;;;;;;;;;;;9.00;99.90;;;;;;5084946;28;19987;-71
2022/09/17 08:23:58;;;;;;;;;;;9.10;99.90;;;;;;5084601;28;19920;-70
2022/09/17 08:26:25;;;;;;;;;;;9.10;99.90;;;;;;5084395;28;19983;-69
2022/09/17 08:28:53;;;;;;;;;;;9.00;99.90;;;;;;5083741;28;19966;-70
2022/09/17 08:31:21;;;;;;;;;;;9.10;99.90;;;;;;5084671;28;19921;-69
2022/09/17 08:33:48;;;;;;;;;;;9.20;99.90;;;;;;5084346;28;20227;-69
2022/09/17 08:36:16;;;;;;;;;;;9.20;99.90;;;;;;5084204;28;19921;-69
2022/09/17 08:38:44;;;;;;;;;;;9.30;99.90;;;;;;5084456;28;19927;-69
2022/09/17 08:41:19;;;;;;;;;;;9.30;99.90;;;;;;5084057;28;19987;-69
2022/09/17 08:43:48;;;;;;;;;;;9.40;99.90;;;;;;5077351;28;19926;-70
2022/09/17 08:46:15;;;;;;;;;;;9.40;99.90;;;;;;5083858;28;19920;-71
2022/09/17 08:48:43;;;;;;;;;;;9.50;99.90;;;;;;5083552;28;19984;-70
2022/09/17 08:51:15;;;;;;;;;;;9.50;99.90;;;;;;5083151;28;20246;-70
2022/09/17 08:53:50;;;;;;;;;;;9.40;99.90;;;;;;5084251;28;19988;-70
2022/09/17 08:56:18;;;;;;;;;;;9.50;99.90;;;;;;5079951;28;20207;-70
2022/09/17 08:58:56;;;;;;;;;;;9.50;99.90;;;;;;5082186;28;19974;-71
2022/09/17 09:01:27;;;;;;;;;;;9.50;99.90;;;;;;5083788;28;19950;-71
2022/09/17 09:04:06;;;;;;;;;;;9.60;99.90;;;;;;5083349;28;20115;-70
2022/09/17 09:06:35;;;;;;;;;;;9.60;99.90;;;;;;5063781;28;20143;-71
2022/09/17 09:09:05;;;;;;;;;;;9.70;99.90;;;;;;5063840;28;19921;-70
2022/09/17 09:11:31;;;;;;;;;;;9.80;99.90;;;;;;5082922;28;19956;-71
2022/09/17 09:14:01;;;;;;;;;;;9.90;99.90;;;;;;5079968;28;20162;-71
2022/09/17 09:16:32;;;;;;;;;;;9.90;99.90;;;;;;5083701;28;19935;-68
2022/09/17 09:19:00;;;;;;;;;;;10.00;99.90;;;;;;5083760;28;19920;-73
2022/09/17 09:21:28;;;;;;;;;;;10.10;99.90;;;;;;5082272;28;19920;-69
2022/09/17 09:23:57;;;;;;;;;;;10.10;99.90;;;;;;5083685;28;20112;-68
2022/09/17 09:26:33;;;;;;;;;;;10.20;99.90;;;;;;5072399;28;20116;-69
2022/09/17 09:29:04;;;;;;;;;;;10.10;99.90;;;;;;5063481;28;20186;-69
2022/09/17 09:31:36;;;;;;;;;;;10.10;99.90;;;;;;5083503;28;19927;-69
2022/09/17 09:34:04;;;;;;;;;;;10.10;99.90;;;;;;5083759;28;19969;-69
2022/09/17 09:36:32;;;;;;;;;;;10.20;99.90;;;;;;5083098;28;19921;-69
2022/09/17 09:39:00;;;;;;;;;;;10.20;99.90;;;;;;5082642;28;20018;-69
2022/09/17 09:41:31;;;;;;;;;;;10.20;99.90;;;;;;5075466;28;20102;-69
2022/09/17 09:44:01;;;;;;;;;;;10.20;99.90;;;;;;5081759;28;19943;-69
2022/09/17 09:46:37;;;;;;;;;;;10.30;99.90;;;;;;5082293;28;19921;-69
2022/09/17 09:49:08;;;;;;;;;;;10.20;99.90;;;;;;5082970;28;19928;-69
2022/09/17 09:51:41;;;;;;;;;;;10.20;99.90;;;;;;5079610;28;19987;-69
2022/09/17 09:54:16;;;;;;;;;;;10.20;99.90;;;;;;5081089;28;20148;-69
2022/09/17 09:56:54;;;;;;;;;;;10.10;99.90;;;;;;5082882;28;19921;-69
2022/09/17 09:59:21;;;;;;;;;;;10.10;99.90;;;;;;5082951;28;19951;-69
2022/09/17 10:01:48;;;;;;;;;;;10.10;99.90;;;;;;5077759;28;20150;-69
2022/09/17 10:04:16;;;;;;;;;;;10.10;99.90;;;;;;5063169;28;20001;-69
2022/09/17 10:06:43;;;;;;;;;;;10.10;99.90;;;;;;5076740;28;19952;-71
2022/09/17 10:09:10;;;;;;;;;;;10.20;99.90;;;;;;5079832;28;19921;-69
2022/09/17 10:11:39;;;;;;;;;;;10.30;99.90;;;;;;5081063;28;20273;-70
2022/09/17 10:14:23;;;;;;;;;;;10.40;99.90;;;;;;5081013;28;19920;-70
2022/09/17 10:16:49;;;;;;;;;;;10.60;99.90;;;;;;5066969;28;20147;-70
2022/09/17 10:19:23;;;;;;;;;;;10.80;99.90;;;;;;5069903;28;19929;-70
2022/09/17 10:21:51;;;;;;;;;;;10.90;99.90;;;;;;5082900;28;19927;-69
2022/09/17 10:24:21;;;;;;;;;;;11.00;99.90;;;;;;5078746;28;20381;-68
2022/09/17 10:26:48;;;;;;;;;;;11.00;99.90;;;;;;5082453;28;20115;-67
2022/09/17 10:29:18;;;;;;;;;;;11.00;99.90;;;;;;5071647;28;19920;-69
2022/09/17 10:31:48;;;;;;;;;;;11.00;99.90;;;;;;5074589;28;19921;-69
2022/09/17 10:34:22;;;;;;;;;;;10.90;99.90;;;;;;5071066;28;20131;-69
2022/09/17 10:36:49;;;;;;;;;;;10.90;99.90;;;;;;5074930;28;19991;-69
2022/09/17 10:39:19;;;;;;;;;;;11.10;99.90;;;;;;5078604;28;19983;-69
2022/09/17 10:41:53;;;;;;;;;;;11.20;99.90;;;;;;5085275;28;19927;-68
2022/09/17 10:44:22;;;;;;;;;;;11.20;99.90;;;;;;5082666;28;20498;-69
2022/09/17 10:46:49;;;;;;;;;;;11.20;99.90;;;;;;5082686;28;19924;-69
2022/09/17 10:49:23;;;;;;;;;;;11.20;99.90;;;;;;5082589;28;19975;-70
2022/09/17 10:51:49;;;;;;;;;;;11.20;99.90;;;;;;5077535;28;19981;-69
2022/09/17 10:54:33;;;;;;;;;;;11.20;99.90;;;;;;5062614;28;19980;-70
2022/09/17 10:57:00;;;;;;;;;;;11.30;99.90;;;;;;5065091;28;19943;-69
2022/09/17 10:59:40;;;;;;;;;;;11.40;99.90;;;;;;5065362;28;19921;-69
2022/09/17 11:02:20;;;;;;;;;;;11.40;99.90;;;;;;5062967;28;19928;-68
2022/09/17 11:04:50;;;;;;;;;;;11.20;99.90;;;;;;5064018;28;19921;-69
2022/09/17 11:07:32;;;;;;;;;;;11.20;99.90;;;;;;5082735;28;19921;-70
2022/09/17 11:10:02;;;;;;;;;;;11.40;99.90;;;;;;5082264;28;20120;-69
2022/09/17 11:12:36;;;;;;;;;;;11.70;99.90;;;;;;5080977;28;19948;-69
2022/09/17 11:15:09;;;;;;;;;;;11.80;99.90;;;;;;5085683;28;19960;-69
2022/09/17 11:17:43;;;;;;;;;;;12.00;99.90;;;;;;5082048;28;19939;-69
2022/09/17 11:20:17;;;;;;;;;;;12.20;99.90;;;;;;5080978;28;19928;-72
2022/09/17 11:22:47;;;;;;;;;;;12.30;99.90;;;;;;5085158;28;19958;-71
2022/09/17 11:25:28;;;;;;;;;;;12.40;99.90;;;;;;5084768;28;19948;-72
2022/09/17 11:28:07;;;;;;;;;;;12.40;99.90;;;;;;5080045;28;19920;-68
2022/09/17 11:30:43;;;;;;;;;;;12.30;99.90;;;;;;5085967;28;19962;-72
2022/09/17 11:33:17;;;;;;;;;;;12.10;99.90;;;;;;5086766;28;20136;-71
2022/09/17 11:35:47;;;;;;;;;;;12.00;99.90;;;;;;5085776;28;19921;-71
2022/09/17 11:38:16;;;;;;;;;;;11.90;99.90;;;;;;5086115;28;19927;-71
2022/09/17 11:40:44;;;;;;;;;;;11.70;99.90;;;;;;5084304;28;20253;-71
2022/09/17 11:43:19;;;;;;;;;;;11.70;99.90;;;;;;5085766;28;19920;-72
2022/09/17 11:45:53;;;;;;;;;;;11.60;99.90;;;;;;5084634;28;19966;-71
2022/09/17 11:48:20;;;;;;;;;;;11.40;99.90;;;;;;5085655;28;20218;-71
2022/09/17 11:50:49;;;;;;;;;;;11.10;99.90;;;;;;5085090;28;19927;-71
2022/09/17 11:53:22;;;;;;;;;;;11.00;99.90;;;;;;5085378;28;19991;-72
2022/09/17 11:55:51;;;;;;;;;;;10.90;99.90;;;;;;5084426;28;20265;-72
2022/09/17 11:58:22;;;;;;;;;;;10.90;99.90;;;;;;5085459;28;19920;-71
2022/09/17 12:00:52;;;;;;;;;;;10.80;99.90;;;;;;5085496;28;19983;-72
2022/09/17 12:03:23;;;;;;;;;;;10.70;99.90;;;;;;5084951;28;19920;-72
2022/09/17 12:05:51;;;;;;;;;;;10.60;99.90;;;;;;5084862;28;19926;-71
2022/09/17 12:08:21;;;;;;;;;;;10.50;99.90;;;;;;5082680;28;20127;-72
2022/09/17 12:10:49;;;;;;;;;;;10.40;99.90;;;;;;5073427;28;19927;-72
2022/09/17 12:13:26;;;;;;;;;;;10.30;99.90;;;;;;5084792;28;19925;-71
2022/09/17 12:16:00;;;;;;;;;;;10.20;99.90;;;;;;5084850;28;19940;-71
2022/09/17 12:18:32;;;;;;;;;;;10.20;99.90;;;;;;5085149;28;19921;-71
2022/09/17 12:21:00;;;;;;;;;;;10.30;99.90;;;;;;5084825;28;19921;-71
2022/09/17 12:23:31;;;;;;;;;;;10.70;99.90;;;;;;5083902;28;19921;-71
2022/09/17 12:26:05;;;;;;;;;;;11.00;99.90;;;;;;5084442;28;20223;-71
2022/09/17 12:28:35;;;;;;;;;;;11.30;99.90;;;;;;5084956;28;19927;-72
2022/09/17 12:31:05;;;;;;;;;;;11.40;99.90;;;;;;5084621;28;19920;-71
2022/09/17 12:33:34;;;;;;;;;;;11.40;99.90;;;;;;5084372;28;19936;-72
2022/09/17 12:36:05;;;;;;;;;;;11.50;99.90;;;;;;5084307;28;19955;-71
2022/09/17 12:38:48;;;;;;;;;;;11.60;99.90;;;;;;5064403;28;19921;-71
2022/09/17 12:41:18;;;;;;;;;;;11.70;99.90;;;;;;5064387;28;20223;-72
2022/09/17 12:43:53;;;;;;;;;;;11.80;99.90;;;;;;5064080;28;19927;-71
2022/09/17 12:46:28;;;;;;;;;;;11.90;99.90;;;;;;5064195;28;19921;-70
2022/09/17 12:49:03;;;;;;;;;;;12.10;99.90;;;;;;5082798;28;19984;-71
2022/09/17 12:51:48;;;;;;;;;;;12.20;99.90;;;;;;5083725;28;19921;-71
2022/09/17 12:54:19;;;;;;;;;;;12.30;99.90;;;;;;5070772;28;19920;-72
2022/09/17 12:56:52;;;;;;;;;;;12.50;99.90;;;;;;5083978;28;20100;-71
2022/09/17 12:59:19;;;;;;;;;;;12.80;99.90;;;;;;5083903;28;20171;-71
2022/09/17 13:01:51;;;;;;;;;;;13.00;99.90;;;;;;5084037;28;19925;-70
2022/09/17 13:04:23;;;;;;;;;;;13.00;99.90;;;;;;5083512;28;20115;-72
2022/09/17 13:07:05;;;;;;;;;;;13.00;99.90;;;;;;5082866;28;19930;-71
2022/09/17 13:09:43;;;;;;;;;;;13.00;99.90;;;;;;5083822;28;19979;-71
2022/09/17 13:12:16;;;;;;;;;;;12.90;99.90;;;;;;5083885;28;19980;-72
2022/09/17 13:14:57;;;;;;;;;;;12.80;99.90;;;;;;5083714;28;19983;-72
2022/09/17 13:17:28;;;;;;;;;;;12.40;99.90;;;;;;5084115;28;20177;-71
2022/09/17 13:19:58;;;;;;;;;;;11.70;99.90;;;;;;5083009;28;19952;-71
2022/09/17 13:22:27;;;;;;;;;;;11.10;99.90;;;;;;5083369;28;19982;-72
2022/09/17 13:25:01;;;;;;;;;;;10.70;99.90;;;;;;5083323;28;19920;-71
2022/09/17 13:27:29;;;;;;;;;;;10.40;99.90;;;;;;5083910;28;19983;-72
2022/09/17 13:29:59;;;;;;;;;;;10.20;99.90;;;;;;5083577;28;19955;-72
2022/09/17 13:32:47;;;;;;;;;;;10.10;99.90;;;;;;5065772;28;19942;-72
2022/09/17 13:35:31;;;;;;;;;;;10.10;99.90;;;;;;5082974;28;19921;-71
2022/09/17 13:37:58;;;;;;;;;;;10.10;99.90;;;;;;5083305;28;19921;-71
2022/09/17 13:40:26;;;;;;;;;;;10.20;99.90;;;;;;5094376;22;20277;-70
2022/09/17 13:42:54;;;;;;;;;;;10.30;99.90;;;;;;5050163;28;20141;-71
2022/09/17 13:45:22;;;;;;;;;;;10.60;99.90;;;;;;5062518;28;20201;-71
2022/09/17 13:47:50;;;;;;;;;;;10.90;99.90;;;;;;5063226;28;19921;-71
2022/09/17 13:50:25;;;;;;;;;;;11.50;99.90;;;;;;5063415;28;19920;-71
2022/09/17 13:52:52;;;;;;;;;;;11.90;99.90;;;;;;5055246;28;20089;-71
2022/09/17 13:55:33;;;;;;;;;;;12.40;99.90;;;;;;5063090;28;19920;-71
2022/09/17 13:58:00;;;;;;;;;;;12.70;99.90;;;;;;5063090;28;19935;-71
2022/09/17 14:00:46;;;;;;;;;;;13.10;99.90;;;;;;5063173;28;19980;-72
2022/09/17 14:03:33;;;;;;;;;;;13.30;99.90;;;;;;5063323;28;19956;-71
2022/09/17 14:06:24;;;;;;;;;;;13.60;99.90;;;;;;5062736;28;19956;-70
2022/09/17 14:08:53;;;;;;;;;;;13.50;99.90;;;;;;5063050;28;19921;-71
2022/09/17 14:11:34;;;;;;;;;;;13.50;99.90;;;;;;5062885;28;19924;-71
2022/09/17 14:14:35;;;;;;;;;;;13.40;99.90;;;;;;5060691;28;19952;-71
2022/09/17 14:17:02;;;;;;;;;;;13.20;99.90;;;;;;5043083;28;20131;-71
2022/09/17 14:19:35;;;;;;;;;;;13.20;99.90;;;;;;5053009;28;19920;-71
2022/09/17 14:22:13;;;;;;;;;;;13.40;99.90;;;;;;5062822;28;20155;-71
2022/09/17 14:24:45;;;;;;;;;;;13.70;99.90;;;;;;5062764;28;20228;-71
2022/09/17 14:27:14;;;;;;;;;;;13.90;99.90;;;;;;5063173;28;19928;-71
2022/09/17 14:29:55;;;;;;;;;;;14.00;99.90;;;;;;5062880;28;20251;-72
2022/09/17 14:32:28;;;;;;;;;;;14.10;99.90;;;;;;5062864;28;19927;-72
2022/09/17 14:34:56;;;;;;;;;;;14.00;99.90;;;;;;5062407;28;19921;-71
2022/09/17 14:37:24;;;;;;;;;;;14.00;99.90;;;;;;5062718;28;19925;-71
2022/09/17 14:39:51;;;;;;;;;;;13.90;99.90;;;;;;5063185;28;19921;-70
2022/09/17 14:42:20;;;;;;;;;;;13.70;99.90;;;;;;5062822;28;19927;-71